STN weather

London Stansted Airport
London, England, United Kingdom

Public forecast

Using degrees Celsius for public forecast. Weather courtesy of forecast.io.

METAR (pilot weather report)

Retrieved 2019/02/17 13:50 UTC (24 minutes ago):

EGSS 171350Z AUTO 20014KT 9999 NCD 14/06 Q1014

TAF (pilot weather forecast)

Retrieved 2019/02/17 12:00 UTC (2 hours ago):

TAF EGSS 171102Z 1712/1818 19010KT 9999 FEW025 TEMPO 1715/1818 7000 -RADZ BKN013 PROB30 TEMPO 1805/1810 BKN005 PROB40 TEMPO 1813/1818 4000 RA SHRA